Terminal Aerodrome Forecast
Issued by NWS

Home | Current Version | Previous Version | Text Only | Print | Product List | Glossary On
Versions: 1 2 3 4 5 6 7 8 9 10 11 12 13
953
FTUS44 KBMX 261739
TAFTCL
TAF
KTCL 261739Z 2618/2718 15014G22KT P6SM SCT035 SCT250
     FM270200 16014G21KT P6SM SCT050
     FM270500 17018G28KT P6SM BKN025
     FM270800 19014G23KT 4SM TSRA BKN030CB
     FM271200 25012KT P6SM OVC015=

USA.gov is the U.S. government's official web portal to all federal, state and local government web resources and services.